createdAt,value
2023-10-23T00:00:09.962Z,36.20
2023-10-23T00:02:41.223Z,34.33
2023-10-23T00:05:11.968Z,33.53
2023-10-23T00:07:40.664Z,30.57
2023-10-23T00:10:09.560Z,30.13
2023-10-23T00:12:37.846Z,31.30
2023-10-23T00:15:06.766Z,33.63
2023-10-23T00:17:35.282Z,33.33
2023-10-23T00:20:06.186Z,39.13
2023-10-23T00:22:34.347Z,48.60
2023-10-23T00:25:02.889Z,44.73
2023-10-23T00:27:30.969Z,53.53
2023-10-23T00:30:02.889Z,48.97
2023-10-23T00:32:32.380Z,44.97
2023-10-23T00:35:01.356Z,47.30
2023-10-23T00:37:30.159Z,47.47
2023-10-23T00:39:58.094Z,52.53
2023-10-23T00:42:26.529Z,55.03
2023-10-23T00:44:54.922Z,53.83
2023-10-23T00:47:23.767Z,52.10
2023-10-23T00:49:52.314Z,51.90
2023-10-23T00:52:20.873Z,51.93
2023-10-23T00:54:49.730Z,50.77
2023-10-23T00:57:17.530Z,50.83
2023-10-23T00:59:46.038Z,51.60
2023-10-23T01:02:14.542Z,50.40
2023-10-23T01:04:43.097Z,46.70
2023-10-23T01:07:11.869Z,46.30
2023-10-23T01:09:40.471Z,43.60
2023-10-23T01:12:08.525Z,42.40
2023-10-23T01:14:36.983Z,40.37
2023-10-23T01:17:05.756Z,38.10
2023-10-23T01:19:33.997Z,37.57
2023-10-23T01:22:02.035Z,39.23
2023-10-23T01:24:32.263Z,37.20
2023-10-23T01:27:00.363Z,34.83
2023-10-23T01:29:28.676Z,31.87
2023-10-23T01:31:56.814Z,30.87
2023-10-23T01:34:24.558Z,31.30
2023-10-23T01:36:52.828Z,32.00
2023-10-23T01:39:21.172Z,28.20
2023-10-23T01:41:58.225Z,30.63
2023-10-23T01:44:31.820Z,31.83
2023-10-23T01:47:04.800Z,30.07
2023-10-23T01:49:32.909Z,32.27
2023-10-23T01:52:04.153Z,34.30
2023-10-23T01:54:35.036Z,36.47
2023-10-23T01:57:04.920Z,35.67
2023-10-23T01:59:33.448Z,38.27
2023-10-23T02:02:01.611Z,38.73
2023-10-23T02:04:30.392Z,40.07
2023-10-23T02:07:01.251Z,40.43
2023-10-23T02:09:29.916Z,41.30
2023-10-23T02:12:00.231Z,42.57
2023-10-23T02:14:28.654Z,45.17
2023-10-23T02:16:56.996Z,45.50
2023-10-23T02:19:26.178Z,44.93
2023-10-23T02:21:54.448Z,45.97
2023-10-23T02:24:23.194Z,44.40
2023-10-23T02:26:53.453Z,40.97
2023-10-23T02:29:22.395Z,43.10
2023-10-23T02:31:50.829Z,39.20
2023-10-23T02:34:19.115Z,34.20
2023-10-23T02:36:47.717Z,31.17
2023-10-23T02:39:16.038Z,27.97
2023-10-23T02:41:44.628Z,26.23
2023-10-23T02:44:12.899Z,34.33
2023-10-23T02:46:42.634Z,24.80
2023-10-23T02:49:33.473Z,23.67
2023-10-23T02:52:01.418Z,22.77
2023-10-23T02:54:30.956Z,23.60
2023-10-23T02:56:59.365Z,22.77
2023-10-23T02:59:27.608Z,21.53
2023-10-23T03:01:55.587Z,21.77
2023-10-23T03:04:23.632Z,21.03
2023-10-23T03:06:51.788Z,21.50
2023-10-23T03:09:19.795Z,19.30
2023-10-23T03:11:47.922Z,20.77
2023-10-23T03:14:16.353Z,21.83
2023-10-23T03:16:44.624Z,21.27
2023-10-23T03:19:12.892Z,23.20
2023-10-23T03:21:41.182Z,20.83
2023-10-23T03:24:09.984Z,22.03
2023-10-23T03:26:38.043Z,21.90
2023-10-23T03:29:06.413Z,20.80
2023-10-23T03:31:34.466Z,21.23
2023-10-23T03:34:03.164Z,22.23
2023-10-23T03:36:31.405Z,22.27
2023-10-23T03:38:59.849Z,22.80
2023-10-23T03:41:28.019Z,22.80
2023-10-23T03:43:56.210Z,23.70
2023-10-23T03:46:24.506Z,23.93
2023-10-23T03:48:53.735Z,22.10
2023-10-23T03:51:22.227Z,25.33
2023-10-23T03:53:50.308Z,22.77
2023-10-23T03:56:18.456Z,23.70
2023-10-23T03:58:46.704Z,22.57
2023-10-23T04:01:14.947Z,22.53
2023-10-23T04:03:42.947Z,32.53
2023-10-23T04:06:10.958Z,23.03
2023-10-23T04:08:39.099Z,24.30
2023-10-23T04:11:07.192Z,24.20
2023-10-23T04:13:36.447Z,25.17
2023-10-23T04:16:04.839Z,27.53
2023-10-23T04:18:33.119Z,29.13
2023-10-23T04:21:11.977Z,26.80
2023-10-23T04:23:41.244Z,26.40
2023-10-23T04:26:09.839Z,29.33
2023-10-23T04:28:38.665Z,26.07
2023-10-23T04:31:06.898Z,27.07
2023-10-23T04:33:34.822Z,27.50
2023-10-23T04:36:03.276Z,30.07
2023-10-23T04:38:33.120Z,27.73
2023-10-23T04:41:01.326Z,27.63
2023-10-23T04:43:29.686Z,27.27
2023-10-23T04:46:00.962Z,27.00
2023-10-23T04:48:29.394Z,29.40
2023-10-23T04:51:05.000Z,26.30
2023-10-23T04:53:33.257Z,27.67
2023-10-23T04:56:01.913Z,30.47
2023-10-23T04:58:31.364Z,31.20
2023-10-23T05:00:59.951Z,29.00
2023-10-23T05:03:28.227Z,27.67
2023-10-23T05:05:56.638Z,27.37
2023-10-23T05:08:24.793Z,27.50
2023-10-23T05:10:52.797Z,26.10
2023-10-23T05:13:21.077Z,25.77
2023-10-23T05:15:49.235Z,25.87
2023-10-23T05:18:17.416Z,26.17
2023-10-23T05:20:45.463Z,25.63
2023-10-23T05:23:13.251Z,24.73
2023-10-23T05:25:41.254Z,24.83
2023-10-23T05:28:09.173Z,25.67
2023-10-23T05:30:37.125Z,27.23
2023-10-23T05:33:05.044Z,26.80
2023-10-23T05:35:33.257Z,24.60
2023-10-23T05:38:01.132Z,24.57
2023-10-23T05:40:29.388Z,23.47
2023-10-23T05:42:57.687Z,24.30
2023-10-23T05:45:26.021Z,24.23
2023-10-23T05:47:54.222Z,23.47
2023-10-23T05:50:22.431Z,21.80
2023-10-23T05:52:50.501Z,22.23
2023-10-23T05:55:20.084Z,23.53
2023-10-23T05:57:48.453Z,22.90
2023-10-23T06:00:16.938Z,21.80
2023-10-23T06:02:45.065Z,21.83
2023-10-23T06:05:14.337Z,22.43
2023-10-23T06:07:42.876Z,23.73
2023-10-23T06:10:11.230Z,23.33
2023-10-23T06:12:39.319Z,25.10
2023-10-23T06:15:07.615Z,25.47
2023-10-23T06:17:35.732Z,25.87
2023-10-23T06:20:04.433Z,23.33
2023-10-23T06:22:32.719Z,23.87
2023-10-23T06:25:00.998Z,23.27
2023-10-23T06:27:28.808Z,23.23
2023-10-23T06:29:56.776Z,24.60
2023-10-23T06:32:27.448Z,23.27
2023-10-23T06:34:56.296Z,23.60
2023-10-23T06:37:24.584Z,23.17
2023-10-23T06:39:52.105Z,22.83
2023-10-23T06:42:20.027Z,25.00
2023-10-23T06:44:48.276Z,23.80
2023-10-23T06:47:17.287Z,24.13
2023-10-23T06:49:48.392Z,23.60
2023-10-23T06:52:16.476Z,24.33
2023-10-23T06:54:44.590Z,23.58
2023-10-23T06:57:12.714Z,24.58
2023-10-23T06:59:41.155Z,24.02
2023-10-23T07:02:10.623Z,24.52
2023-10-23T07:04:38.724Z,27.00
2023-10-23T07:07:17.874Z,28.73
2023-10-23T07:09:50.439Z,28.13
2023-10-23T07:12:18.326Z,29.77
2023-10-23T07:14:46.311Z,36.60
2023-10-23T07:17:14.279Z,30.73
2023-10-23T07:19:42.563Z,27.33
2023-10-23T07:22:10.341Z,25.20
2023-10-23T07:24:40.827Z,24.37
2023-10-23T07:27:13.340Z,24.00
2023-10-23T07:29:41.723Z,22.17
2023-10-23T07:32:10.125Z,22.27
2023-10-23T07:34:39.076Z,24.40
2023-10-23T07:37:07.365Z,23.87
2023-10-23T07:39:36.507Z,27.27
2023-10-23T07:42:04.857Z,25.95
2023-10-23T07:44:33.110Z,25.07
2023-10-23T07:47:01.308Z,24.90
2023-10-23T07:49:29.433Z,24.05
2023-10-23T07:51:57.561Z,22.33
2023-10-23T07:54:25.502Z,21.42
2023-10-23T07:56:57.199Z,21.98
2023-10-23T07:59:25.545Z,21.08
2023-10-23T08:01:54.346Z,21.35
2023-10-23T08:04:22.525Z,20.25
2023-10-23T08:06:50.869Z,18.98
2023-10-23T08:09:19.869Z,19.13
2023-10-23T08:11:47.590Z,18.85
2023-10-23T08:14:16.284Z,16.67
2023-10-23T08:16:44.589Z,17.35
2023-10-23T08:19:14.262Z,16.40
2023-10-23T08:21:42.436Z,16.70
2023-10-23T08:24:11.125Z,16.58
2023-10-23T08:26:40.736Z,16.70
2023-10-23T08:29:08.982Z,16.15
2023-10-23T08:31:40.477Z,15.77
2023-10-23T08:34:09.724Z,19.60
2023-10-23T08:36:38.518Z,14.38
2023-10-23T08:39:06.751Z,15.35
2023-10-23T08:41:37.139Z,13.68
2023-10-23T08:44:06.680Z,14.85
2023-10-23T08:46:35.562Z,13.95
2023-10-23T08:49:04.345Z,12.82
2023-10-23T08:51:33.169Z,12.90
2023-10-23T08:54:15.810Z,13.48
2023-10-23T08:56:45.446Z,14.38
2023-10-23T08:59:15.797Z,12.75
2023-10-23T09:01:44.352Z,13.98
2023-10-23T09:04:29.995Z,12.68
2023-10-23T09:07:00.887Z,18.58
2023-10-23T09:09:30.203Z,13.23
2023-10-23T09:11:59.236Z,12.65
2023-10-23T09:14:28.905Z,13.38
2023-10-23T09:16:58.143Z,12.48
2023-10-23T09:19:35.863Z,12.05
2023-10-23T09:22:05.598Z,12.05
2023-10-23T09:24:34.054Z,12.15
2023-10-23T09:27:01.985Z,11.40
2023-10-23T09:29:30.546Z,11.93
2023-10-23T09:32:00.481Z,11.07
2023-10-23T09:34:30.626Z,11.13
2023-10-23T09:36:59.175Z,10.00
2023-10-23T09:39:27.534Z,9.77
2023-10-23T09:41:55.157Z,9.98
2023-10-23T09:44:25.946Z,11.82
2023-10-23T09:46:55.673Z,9.05
2023-10-23T09:49:28.411Z,9.43
2023-10-23T09:51:59.408Z,8.18
2023-10-23T09:54:27.357Z,7.75
2023-10-23T09:56:55.791Z,8.35
2023-10-23T09:59:35.870Z,7.63
2023-10-23T10:02:07.720Z,5.53
2023-10-23T10:04:45.015Z,5.07
2023-10-23T10:07:18.582Z,4.05
2023-10-23T10:09:47.052Z,5.18
2023-10-23T10:12:15.371Z,3.95
2023-10-23T10:14:44.414Z,3.70
2023-10-23T10:17:16.233Z,3.65
2023-10-23T10:19:44.667Z,4.57
2023-10-23T10:22:13.219Z,3.70
2023-10-23T10:24:41.246Z,3.75
2023-10-23T10:27:10.127Z,2.88
2023-10-23T10:29:38.452Z,2.20
2023-10-23T10:32:13.513Z,2.33
2023-10-23T10:34:55.788Z,2.25
2023-10-23T10:37:31.880Z,2.05
2023-10-23T10:40:00.141Z,2.30
2023-10-23T10:42:30.948Z,1.88
2023-10-23T10:45:01.355Z,3.75
2023-10-23T10:47:53.997Z,1.90
2023-10-23T10:50:42.623Z,1.55
2023-10-23T10:53:15.418Z,1.40
2023-10-23T10:55:46.636Z,1.30
2023-10-23T10:58:14.769Z,1.80
2023-10-23T11:00:43.123Z,1.35
2023-10-23T11:03:11.561Z,1.20
2023-10-23T11:05:46.082Z,1.33
2023-10-23T11:08:14.594Z,1.27
2023-10-23T11:10:43.234Z,1.30
2023-10-23T11:13:18.017Z,1.10
2023-10-23T11:15:47.460Z,1.30
2023-10-23T11:18:18.278Z,1.35
2023-10-23T11:20:46.625Z,1.30
2023-10-23T11:23:18.236Z,1.27
2023-10-23T11:25:56.010Z,1.10
2023-10-23T11:28:25.075Z,1.20
2023-10-23T11:30:58.034Z,1.05
2023-10-23T11:33:26.137Z,1.00
2023-10-23T11:35:55.006Z,1.05
2023-10-23T11:38:25.621Z,1.30
2023-10-23T11:40:56.378Z,1.25
2023-10-23T11:43:24.655Z,1.23
2023-10-23T11:45:52.962Z,1.17
2023-10-23T11:48:20.907Z,1.23
2023-10-23T11:50:49.356Z,1.63
2023-10-23T11:53:18.410Z,1.23
2023-10-23T11:55:47.216Z,1.00
2023-10-23T11:58:15.517Z,1.90
2023-10-23T12:00:43.832Z,1.15
2023-10-23T12:03:11.933Z,1.30
2023-10-23T12:05:41.234Z,1.33
2023-10-23T12:08:17.128Z,1.33
2023-10-23T12:10:45.507Z,1.90
2023-10-23T12:13:13.238Z,2.40
2023-10-23T12:15:41.333Z,2.25
2023-10-23T12:18:09.212Z,1.98
2023-10-23T12:20:37.422Z,1.50
2023-10-23T12:23:05.708Z,1.40
2023-10-23T12:25:34.133Z,1.17
2023-10-23T12:28:02.463Z,1.23
2023-10-23T12:30:30.939Z,1.50
2023-10-23T12:33:17.523Z,1.40
2023-10-23T12:35:51.022Z,1.70
2023-10-23T12:38:19.549Z,1.88
2023-10-23T12:40:50.130Z,1.52
2023-10-23T12:43:18.396Z,1.70
2023-10-23T12:45:48.200Z,1.60
2023-10-23T12:48:16.554Z,1.88
2023-10-23T12:50:45.066Z,1.75
2023-10-23T12:53:13.609Z,1.60
2023-10-23T12:55:42.974Z,1.48
2023-10-23T12:58:11.396Z,1.52
2023-10-23T13:00:42.715Z,2.08
2023-10-23T13:03:11.003Z,3.95
2023-10-23T13:05:40.149Z,2.00
2023-10-23T13:08:08.972Z,1.92
2023-10-23T13:10:36.993Z,1.45
2023-10-23T13:13:05.218Z,1.20
2023-10-23T13:15:33.313Z,1.75
2023-10-23T13:18:04.009Z,1.60
2023-10-23T13:21:28.364Z,1.80
2023-10-23T13:23:23.452Z,1.58
2023-10-23T13:26:05.971Z,1.67
2023-10-23T13:28:41.046Z,1.65
2023-10-23T13:31:09.520Z,2.70
2023-10-23T13:33:38.485Z,2.92
2023-10-23T13:36:10.322Z,2.78
2023-10-23T13:38:39.237Z,3.97
2023-10-23T13:41:07.586Z,4.35
2023-10-23T13:43:35.689Z,4.45
2023-10-23T13:46:06.960Z,4.75
2023-10-23T13:48:35.298Z,4.18
2023-10-23T13:51:03.761Z,5.40
2023-10-23T13:53:33.067Z,5.40
2023-10-23T13:56:01.260Z,5.93
2023-10-23T13:58:48.221Z,7.75
2023-10-23T14:01:19.796Z,5.97
2023-10-23T14:03:48.532Z,6.82
2023-10-23T14:06:19.373Z,6.60
2023-10-23T14:09:42.057Z,7.20
2023-10-23T14:11:59.121Z,7.15
2023-10-23T14:14:25.358Z,7.47
2023-10-23T14:16:56.322Z,5.63
2023-10-23T14:19:38.103Z,5.22
2023-10-23T14:22:11.378Z,4.70
2023-10-23T14:24:40.050Z,4.40
2023-10-23T14:27:08.577Z,4.88
2023-10-23T14:29:37.182Z,5.00
2023-10-23T14:32:05.765Z,4.68
2023-10-23T14:34:33.894Z,5.20
2023-10-23T14:37:02.174Z,4.75
2023-10-23T14:39:31.170Z,6.22
2023-10-23T14:41:59.077Z,5.00
2023-10-23T14:44:26.874Z,5.95
2023-10-23T14:46:55.195Z,5.55
2023-10-23T14:49:23.282Z,6.78
2023-10-23T14:51:52.685Z,8.27
2023-10-23T14:54:21.222Z,5.28
2023-10-23T14:56:51.384Z,4.72
2023-10-23T14:59:19.523Z,5.10
2023-10-23T15:01:47.628Z,4.68
2023-10-23T15:04:32.636Z,5.80
2023-10-23T15:07:01.864Z,4.53
2023-10-23T15:09:30.572Z,5.10
2023-10-23T15:11:58.765Z,5.50
2023-10-23T15:14:26.729Z,4.80
2023-10-23T15:16:55.812Z,4.60
2023-10-23T15:19:23.891Z,5.70
2023-10-23T15:21:52.070Z,6.20
2023-10-23T15:24:21.380Z,5.80
2023-10-23T15:26:49.758Z,6.67
2023-10-23T15:29:17.857Z,5.77
2023-10-23T15:31:46.295Z,6.03
2023-10-23T15:34:15.265Z,5.90
2023-10-23T15:36:43.546Z,6.10
2023-10-23T15:39:11.668Z,5.97
2023-10-23T15:41:39.819Z,5.40
2023-10-23T15:44:07.679Z,6.27
2023-10-23T15:46:38.103Z,6.27
2023-10-23T15:49:06.732Z,8.00
2023-10-23T15:51:35.049Z,6.60
2023-10-23T15:54:03.106Z,6.50
2023-10-23T15:56:31.320Z,6.33
2023-10-23T15:58:59.940Z,5.67
2023-10-23T16:01:29.352Z,6.87
2023-10-23T16:03:57.338Z,7.30
2023-10-23T16:06:25.083Z,7.80
2023-10-23T16:08:53.144Z,8.23
2023-10-23T16:11:23.340Z,8.43
2023-10-23T16:13:51.595Z,8.93
2023-10-23T16:16:19.682Z,9.70
2023-10-23T16:18:47.578Z,9.57
2023-10-23T16:21:16.754Z,11.10
2023-10-23T16:23:45.494Z,10.60
2023-10-23T16:26:13.701Z,10.70
2023-10-23T16:28:42.515Z,10.60
2023-10-23T16:31:15.453Z,10.90
2023-10-23T16:33:44.018Z,11.77
2023-10-23T16:36:12.365Z,9.13
2023-10-23T16:38:40.918Z,8.73
2023-10-23T16:41:09.045Z,8.00
2023-10-23T16:43:41.633Z,7.77
2023-10-23T16:46:13.208Z,8.90
2023-10-23T16:48:43.021Z,9.07
2023-10-23T16:51:11.331Z,8.50
2023-10-23T16:53:42.796Z,8.90
2023-10-23T16:56:10.664Z,8.30
2023-10-23T16:58:38.995Z,10.80
2023-10-23T17:01:08.079Z,12.13
2023-10-23T17:03:39.242Z,9.93
2023-10-23T17:06:10.787Z,9.80
2023-10-23T17:08:39.218Z,9.77
2023-10-23T17:11:08.502Z,10.67
2023-10-23T17:13:37.189Z,12.00
2023-10-23T17:16:05.552Z,11.07
2023-10-23T17:18:33.907Z,9.93
2023-10-23T17:21:04.300Z,9.97
2023-10-23T17:23:33.015Z,10.30
2023-10-23T17:26:02.164Z,9.93
2023-10-23T17:28:32.098Z,10.20
2023-10-23T17:31:00.826Z,9.67
2023-10-23T17:33:32.165Z,10.10
2023-10-23T17:36:01.135Z,8.90
2023-10-23T17:38:29.749Z,21.43
2023-10-23T17:40:58.182Z,9.40
2023-10-23T17:43:26.573Z,10.73
2023-10-23T17:45:55.392Z,9.80
2023-10-23T17:48:23.297Z,8.70
2023-10-23T17:50:52.437Z,7.27
2023-10-23T17:53:20.676Z,6.97
2023-10-23T17:55:48.578Z,6.83
2023-10-23T17:58:16.859Z,6.47
2023-10-23T18:00:45.950Z,6.80
2023-10-23T18:03:15.461Z,7.90
2023-10-23T18:05:43.805Z,6.70
2023-10-23T18:08:12.444Z,7.07
2023-10-23T18:10:41.576Z,9.80
2023-10-23T18:13:10.061Z,7.37
2023-10-23T18:15:38.338Z,7.50
2023-10-23T18:18:06.397Z,7.83
2023-10-23T18:20:34.693Z,8.07
2023-10-23T18:23:02.891Z,13.93
2023-10-23T18:25:31.844Z,8.77
2023-10-23T18:28:00.635Z,10.60
2023-10-23T18:30:32.009Z,11.33
2023-10-23T18:33:00.191Z,12.13
2023-10-23T18:35:28.504Z,12.50
2023-10-23T18:37:57.560Z,13.47
2023-10-23T18:40:26.285Z,12.40
2023-10-23T18:42:58.635Z,10.87
2023-10-23T18:45:26.996Z,10.13
2023-10-23T18:47:55.288Z,10.50
2023-10-23T18:50:23.748Z,11.43
2023-10-23T18:52:52.172Z,9.93
2023-10-23T18:55:21.324Z,8.23
2023-10-23T18:57:49.645Z,9.37
2023-10-23T19:00:18.307Z,10.63
2023-10-23T19:02:46.528Z,9.57
2023-10-23T19:05:15.056Z,8.53
2023-10-23T19:07:43.511Z,9.13
2023-10-23T19:10:11.848Z,8.13
2023-10-23T19:12:43.098Z,10.27
2023-10-23T19:15:11.530Z,10.63
2023-10-23T19:17:41.379Z,10.77
2023-10-23T19:20:11.052Z,11.90
2023-10-23T19:22:39.994Z,12.30
2023-10-23T19:25:11.020Z,12.90
2023-10-23T19:27:39.103Z,13.10
2023-10-23T19:30:12.376Z,14.93
2023-10-23T19:32:45.858Z,15.60
2023-10-23T19:35:16.815Z,16.07
2023-10-23T19:37:45.268Z,17.23
2023-10-23T19:40:14.071Z,18.03
2023-10-23T19:42:42.965Z,17.50
2023-10-23T19:45:11.348Z,17.70
2023-10-23T19:47:40.059Z,17.00
2023-10-23T19:50:10.684Z,15.53
2023-10-23T19:52:39.700Z,15.57
2023-10-23T19:55:45.824Z,14.00
2023-10-23T19:57:58.144Z,14.13
2023-10-23T20:00:26.549Z,14.43
2023-10-23T20:02:56.110Z,14.03
2023-10-23T20:05:28.786Z,13.50
2023-10-23T20:07:59.753Z,13.00
2023-10-23T20:10:32.108Z,12.60
2023-10-23T20:13:00.740Z,12.93
2023-10-23T20:15:30.714Z,13.30
2023-10-23T20:17:59.299Z,14.47
2023-10-23T20:20:27.845Z,14.37
2023-10-23T20:22:55.555Z,15.90
2023-10-23T20:25:23.794Z,13.93
2023-10-23T20:27:51.830Z,14.10
2023-10-23T20:30:20.055Z,13.80
2023-10-23T20:32:48.913Z,11.03
2023-10-23T20:35:17.224Z,9.90
2023-10-23T20:37:46.098Z,9.43
2023-10-23T20:40:14.563Z,10.87
2023-10-23T20:42:44.421Z,10.07
2023-10-23T20:45:14.704Z,7.70
2023-10-23T20:47:43.048Z,8.43
2023-10-23T20:50:12.006Z,7.93
2023-10-23T20:52:40.188Z,7.50
2023-10-23T20:55:08.868Z,8.63
2023-10-23T20:57:37.127Z,6.93
2023-10-23T21:00:07.933Z,6.27
2023-10-23T21:02:37.659Z,5.00
2023-10-23T21:05:06.893Z,6.43
2023-10-23T21:07:36.017Z,7.03
2023-10-23T21:10:04.394Z,4.70
2023-10-23T21:12:33.028Z,4.60
2023-10-23T21:15:01.060Z,4.10
2023-10-23T21:17:29.333Z,4.83
2023-10-23T21:19:57.701Z,4.00
2023-10-23T21:22:25.637Z,4.30
2023-10-23T21:24:54.110Z,4.70
2023-10-23T21:27:22.754Z,4.47
2023-10-23T21:29:50.943Z,5.33
2023-10-23T21:32:19.631Z,5.90
2023-10-23T21:34:47.871Z,5.53
2023-10-23T21:37:16.244Z,6.53
2023-10-23T21:39:44.565Z,6.00
2023-10-23T21:42:12.617Z,5.67
2023-10-23T21:44:41.282Z,7.10
2023-10-23T21:47:09.785Z,6.50
2023-10-23T21:49:38.276Z,5.80
2023-10-23T21:52:06.912Z,8.03
2023-10-23T21:54:35.343Z,5.43
2023-10-23T21:57:20.232Z,7.33
2023-10-23T21:59:51.575Z,6.83
2023-10-23T22:02:19.874Z,6.00
2023-10-23T22:04:48.495Z,6.43
2023-10-23T22:07:16.711Z,6.33
2023-10-23T22:09:44.986Z,6.73
2023-10-23T22:12:13.733Z,7.37
2023-10-23T22:14:42.669Z,6.83
2023-10-23T22:17:11.470Z,7.30
2023-10-23T22:19:39.656Z,8.00
2023-10-23T22:22:07.683Z,7.33
2023-10-23T22:24:36.033Z,6.40
2023-10-23T22:27:04.321Z,7.03
2023-10-23T22:29:32.522Z,5.87
2023-10-23T22:32:00.397Z,6.37
2023-10-23T22:34:29.162Z,7.13
2023-10-23T22:37:55.375Z,6.03
2023-10-23T22:39:45.602Z,6.40
2023-10-23T22:42:13.676Z,6.47
2023-10-23T22:44:42.476Z,7.30
2023-10-23T22:47:10.765Z,10.83
2023-10-23T22:49:38.990Z,9.97
2023-10-23T22:52:07.355Z,7.33
2023-10-23T22:54:35.854Z,6.70
2023-10-23T22:57:06.204Z,7.77
2023-10-23T22:59:34.969Z,8.87
2023-10-23T23:02:03.421Z,7.47
2023-10-23T23:04:31.994Z,7.93
2023-10-23T23:07:01.021Z,6.27
2023-10-23T23:09:30.320Z,7.57
2023-10-23T23:11:58.800Z,8.40
2023-10-23T23:14:26.773Z,8.03
2023-10-23T23:16:59.979Z,6.20
2023-10-23T23:19:30.881Z,6.20
2023-10-23T23:22:09.953Z,5.20
2023-10-23T23:24:41.003Z,6.30
2023-10-23T23:27:08.889Z,6.80
2023-10-23T23:29:37.011Z,9.07
2023-10-23T23:32:08.406Z,6.63
2023-10-23T23:34:37.924Z,6.67
2023-10-23T23:37:06.318Z,7.03
2023-10-23T23:39:34.361Z,6.97
2023-10-23T23:42:03.106Z,7.83
2023-10-23T23:44:31.344Z,9.93
2023-10-23T23:46:59.489Z,8.43
2023-10-23T23:49:29.039Z,8.13
2023-10-23T23:51:57.362Z,7.90
2023-10-23T23:54:25.563Z,7.70
2023-10-23T23:56:53.768Z,6.20
2023-10-23T23:59:21.898Z,6.63
